createdAt,value
2018-11-22T12:18:07.204Z,8.63
2018-11-22T12:20:37.452Z,8.07
2018-11-22T12:23:07.560Z,7.87
2018-11-22T12:25:37.080Z,7.77
2018-11-22T12:28:06.524Z,10.50
2018-11-22T12:30:35.956Z,10.53
2018-11-22T12:33:11.003Z,8.13
2018-11-22T12:35:42.229Z,8.37
2018-11-22T12:38:17.083Z,7.62
2018-11-22T12:40:46.659Z,21.17
2018-11-22T12:43:16.100Z,8.58
2018-11-22T12:45:45.567Z,8.45
2018-11-22T12:48:14.980Z,7.90
2018-11-22T12:50:44.367Z,6.47
2018-11-22T12:53:13.853Z,7.08
2018-11-22T12:55:43.249Z,6.17
2018-11-22T12:58:12.722Z,7.60
2018-11-22T13:00:42.225Z,6.60
2018-11-22T13:03:11.889Z,11.35
2018-11-22T13:05:41.530Z,9.68
2018-11-22T13:08:11.556Z,6.10
2018-11-22T13:10:41.048Z,6.53
2018-11-22T13:13:10.576Z,8.97
2018-11-22T13:15:40.286Z,6.75
2018-11-22T13:18:09.833Z,6.72
2018-11-22T13:20:39.210Z,8.50
2018-11-22T13:23:08.608Z,6.67
2018-11-22T13:25:38.060Z,6.47
2018-11-22T13:28:07.685Z,8.07
2018-11-22T13:30:37.220Z,6.60
2018-11-22T13:33:06.867Z,6.50
2018-11-22T13:35:36.360Z,10.78
2018-11-22T13:38:07.127Z,18.13
2018-11-22T13:40:36.737Z,13.97
2018-11-22T13:43:06.810Z,8.80
2018-11-22T13:45:36.273Z,11.27
2018-11-22T13:48:06.308Z,6.20
2018-11-22T13:50:41.721Z,9.43
2018-11-22T13:53:06.696Z,7.27
2018-11-22T13:55:36.086Z,6.40
2018-11-22T13:58:05.795Z,7.57
2018-11-22T14:00:35.321Z,8.53
2018-11-22T14:03:06.285Z,10.00
2018-11-22T14:05:35.694Z,32.35
2018-11-22T14:08:05.138Z,19.67
2018-11-22T14:10:34.659Z,18.27
2018-11-22T14:13:04.271Z,9.63
2018-11-22T14:15:33.778Z,9.43
2018-11-22T14:18:06.972Z,8.60
2018-11-22T14:20:38.256Z,8.33
2018-11-22T14:23:07.956Z,8.47
2018-11-22T14:25:37.458Z,7.03
2018-11-22T14:28:07.161Z,11.40
2018-11-22T14:30:36.729Z,8.97
2018-11-22T14:33:06.441Z,13.27
2018-11-22T14:35:35.883Z,11.37
2018-11-22T14:38:05.434Z,14.00
2018-11-22T14:40:35.828Z,13.03
2018-11-22T14:43:05.476Z,10.37
2018-11-22T14:45:34.935Z,8.80
2018-11-22T14:48:04.854Z,10.53
2018-11-22T14:50:39.401Z,10.27
2018-11-22T14:53:16.208Z,10.43
2018-11-22T14:55:45.724Z,12.53
2018-11-22T14:58:15.214Z,9.97
2018-11-22T15:00:44.720Z,10.53
2018-11-22T15:03:14.263Z,9.40
2018-11-22T15:05:43.771Z,10.50
2018-11-22T15:08:13.213Z,9.73
2018-11-22T15:10:42.617Z,11.97
2018-11-22T15:13:12.076Z,8.07
2018-11-22T15:15:41.645Z,10.93
2018-11-22T15:18:11.080Z,12.37
2018-11-22T15:20:40.558Z,12.47
2018-11-22T15:23:09.990Z,12.27
2018-11-22T15:25:40.016Z,18.87
2018-11-22T15:28:09.521Z,16.37
2018-11-22T15:30:38.926Z,14.57
2018-11-22T15:33:08.440Z,16.80
2018-11-22T15:35:37.856Z,13.20
2018-11-22T15:38:07.377Z,17.83
2018-11-22T15:40:36.889Z,14.33
2018-11-22T15:43:06.439Z,12.60
2018-11-22T15:45:36.070Z,16.43
2018-11-22T15:48:05.708Z,14.23
2018-11-22T15:50:35.098Z,16.50
2018-11-22T15:53:04.566Z,12.27
2018-11-22T15:55:33.977Z,15.93
2018-11-22T15:58:04.337Z,16.67
2018-11-22T16:00:34.378Z,21.47
2018-11-22T16:03:04.140Z,14.67
2018-11-22T16:05:34.213Z,16.50
2018-11-22T16:08:03.720Z,16.83
2018-11-22T16:10:34.596Z,30.47
2018-11-22T16:13:09.291Z,25.17
2018-11-22T16:15:48.288Z,21.30
2018-11-22T16:18:17.820Z,23.13
2018-11-22T16:20:47.270Z,25.70
2018-11-22T16:23:16.855Z,24.00
2018-11-22T16:25:46.353Z,30.93
2018-11-22T16:28:15.827Z,24.40
2018-11-22T16:30:45.313Z,28.33
2018-11-22T16:33:14.762Z,34.90
2018-11-22T16:35:44.805Z,26.03
2018-11-22T16:38:14.304Z,23.83
2018-11-22T16:40:43.878Z,27.10
2018-11-22T16:43:13.392Z,35.20
2018-11-22T16:45:42.972Z,31.43
2018-11-22T16:48:13.351Z,28.43
2018-11-22T16:50:43.392Z,27.20
2018-11-22T16:53:12.854Z,29.03
2018-11-22T16:55:42.378Z,26.23
2018-11-22T16:58:11.872Z,23.10
2018-11-22T17:00:42.788Z,22.67
2018-11-22T17:03:13.616Z,23.73
2018-11-22T17:05:43.717Z,26.90
2018-11-22T17:08:13.177Z,26.33
2018-11-22T17:10:42.726Z,47.93
2018-11-22T17:13:12.159Z,68.33
2018-11-22T17:15:42.293Z,60.83
2018-11-22T17:18:11.927Z,53.17
2018-11-22T17:20:41.349Z,51.47
2018-11-22T17:23:10.872Z,52.23
2018-11-22T17:25:40.338Z,51.93
2018-11-22T17:28:09.969Z,49.37
2018-11-22T17:30:41.562Z,42.30
2018-11-22T17:33:11.114Z,43.60
2018-11-22T17:35:41.273Z,42.40
2018-11-22T17:38:11.542Z,31.50
2018-11-22T17:40:43.765Z,35.63
2018-11-22T17:43:13.285Z,32.87
2018-11-22T17:45:45.081Z,30.07
2018-11-22T17:48:14.579Z,36.27
2018-11-22T17:50:45.299Z,32.77
2018-11-22T17:53:15.558Z,38.10
2018-11-22T17:55:45.062Z,50.50
2018-11-22T17:58:15.034Z,41.90
2018-11-22T18:00:47.850Z,36.40
2018-11-22T18:03:17.384Z,34.90
2018-11-22T18:05:47.125Z,34.10
2018-11-22T18:08:16.727Z,37.90
2018-11-22T18:10:46.261Z,38.07
2018-11-22T18:13:16.430Z,35.63
2018-11-22T18:15:51.547Z,46.57
2018-11-22T18:18:21.049Z,47.47
2018-11-22T18:20:50.529Z,47.93
2018-11-22T18:23:20.075Z,53.43
2018-11-22T18:25:49.555Z,46.17
2018-11-22T18:28:18.976Z,61.73
2018-11-22T18:30:48.406Z,50.87
2018-11-22T18:33:18.642Z,45.33
2018-11-22T18:35:48.014Z,50.27
2018-11-22T18:38:17.362Z,44.50
2018-11-22T18:40:46.999Z,44.57
2018-11-22T18:43:16.413Z,45.27
2018-11-22T18:45:46.679Z,49.77
2018-11-22T18:48:17.360Z,46.30
2018-11-22T18:50:47.214Z,46.57
2018-11-22T18:53:16.719Z,53.80
2018-11-22T18:55:46.210Z,82.87
2018-11-22T18:58:15.755Z,60.17
2018-11-22T19:00:46.024Z,58.60
2018-11-22T19:03:17.769Z,48.50
2018-11-22T19:05:47.959Z,45.90
2018-11-22T19:08:17.403Z,42.13
2018-11-22T19:10:46.927Z,33.80
2018-11-22T19:13:16.858Z,30.37
2018-11-22T19:15:47.492Z,34.63
2018-11-22T19:18:17.371Z,39.97
2018-11-22T19:20:47.687Z,45.27
2018-11-22T19:23:17.746Z,25.33
2018-11-22T19:25:47.364Z,30.43
2018-11-22T19:28:17.050Z,28.60
2018-11-22T19:30:47.352Z,37.67
2018-11-22T19:33:18.416Z,59.90
2018-11-22T19:35:50.875Z,44.97
2018-11-22T19:38:21.088Z,39.70
2018-11-22T19:40:50.694Z,36.17
2018-11-22T19:43:21.099Z,45.50
2018-11-22T19:45:50.610Z,40.07
2018-11-22T19:48:21.864Z,29.80
2018-11-22T19:50:51.391Z,35.67
2018-11-22T19:53:20.804Z,33.23
2018-11-22T19:55:50.315Z,36.77
2018-11-22T19:58:19.784Z,47.73
2018-11-22T20:00:49.146Z,40.03
2018-11-22T20:03:18.630Z,45.57
2018-11-22T20:05:48.520Z,35.37
2018-11-22T20:08:19.193Z,35.60
2018-11-22T20:10:48.834Z,26.23
2018-11-22T20:13:18.421Z,28.03
2018-11-22T20:15:48.047Z,28.20
2018-11-22T20:18:18.110Z,43.13
2018-11-22T20:20:49.888Z,45.83
2018-11-22T20:23:21.805Z,71.20
2018-11-22T20:25:47.596Z,46.33
2018-11-22T20:28:17.090Z,144.50
2018-11-22T20:30:46.556Z,145.87
2018-11-22T20:33:16.084Z,179.33
2018-11-22T20:35:49.917Z,419.63
2018-11-22T20:38:19.417Z,314.03
2018-11-22T20:40:48.864Z,463.60
2018-11-22T20:43:18.337Z,516.77
2018-11-22T20:45:47.795Z,826.17
2018-11-22T20:48:17.234Z,392.73
2018-11-22T20:50:46.584Z,377.57
2018-11-22T20:53:16.307Z,284.30
2018-11-22T20:55:46.607Z,243.37
2018-11-22T20:58:16.959Z,260.23
2018-11-22T21:00:46.745Z,315.20
2018-11-22T21:03:22.598Z,374.97
2018-11-22T21:05:52.399Z,459.97
2018-11-22T21:08:23.250Z,580.53
2018-11-22T21:10:53.000Z,269.83
2018-11-22T21:13:22.607Z,349.73
2018-11-22T21:15:53.442Z,462.97
2018-11-22T21:18:23.787Z,148.60
2018-11-22T21:20:53.896Z,266.60
2018-11-22T21:23:23.292Z,171.43
2018-11-22T21:25:53.562Z,281.67
2018-11-22T21:28:23.535Z,270.17
2018-11-22T21:30:53.502Z,579.13
2018-11-22T21:33:22.857Z,249.97
2018-11-22T21:35:52.329Z,488.70
2018-11-22T21:38:21.782Z,476.83
2018-11-22T21:40:51.277Z,644.10
2018-11-22T21:43:20.734Z,258.80
2018-11-22T21:45:50.230Z,563.47
2018-11-22T21:48:19.864Z,364.13
2018-11-22T21:50:49.283Z,316.53
2018-11-22T21:53:18.731Z,358.10
2018-11-22T21:55:48.280Z,348.87
2018-11-22T21:58:17.838Z,534.47
2018-11-22T22:00:47.403Z,364.87
2018-11-22T22:03:16.769Z,321.70
2018-11-22T22:05:46.242Z,220.67
2018-11-22T22:08:15.872Z,211.00
2018-11-22T22:10:45.375Z,116.53
2018-11-22T22:13:14.965Z,322.23
2018-11-22T22:15:44.499Z,261.80
2018-11-22T22:18:13.952Z,275.70
2018-11-22T22:20:43.355Z,227.13
2018-11-22T22:23:13.516Z,269.77
2018-11-22T22:25:42.752Z,320.80
2018-11-22T22:28:12.556Z,230.17
2018-11-22T22:30:42.077Z,400.07
2018-11-22T22:33:11.685Z,151.90
2018-11-22T22:35:41.092Z,315.43
2018-11-22T22:38:10.545Z,182.00
2018-11-22T22:40:40.039Z,127.73
2018-11-22T22:43:09.814Z,248.30
2018-11-22T22:45:39.972Z,173.43
2018-11-22T22:48:09.487Z,259.53
2018-11-22T22:50:38.937Z,203.13
2018-11-22T22:53:08.423Z,227.13
2018-11-22T22:55:38.124Z,519.20
2018-11-22T22:58:07.693Z,497.80
2018-11-22T23:00:40.462Z,383.20
2018-11-22T23:03:09.901Z,294.97
2018-11-22T23:05:39.502Z,208.53
2018-11-22T23:08:09.096Z,352.37
2018-11-22T23:10:38.600Z,269.30
2018-11-22T23:13:08.287Z,374.93
2018-11-22T23:15:37.765Z,153.93
2018-11-22T23:18:07.585Z,217.07
2018-11-22T23:20:37.606Z,258.97
2018-11-22T23:23:07.050Z,102.40
2018-11-22T23:25:36.464Z,287.33
2018-11-22T23:28:05.900Z,318.10
2018-11-22T23:30:36.038Z,152.03
2018-11-22T23:33:06.880Z,223.00
2018-11-22T23:35:36.430Z,114.47
2018-11-22T23:38:06.071Z,251.57
2018-11-22T23:40:35.597Z,195.23
2018-11-22T23:43:06.170Z,432.13
2018-11-22T23:45:34.729Z,128.73
2018-11-22T23:48:04.192Z,181.37
2018-11-22T23:50:34.144Z,204.23
2018-11-22T23:53:04.278Z,210.70
2018-11-22T23:55:33.673Z,139.13
2018-11-22T23:58:03.065Z,204.57
